sensor_id;sensor_type;location;lat;lon;timestamp;temperature;humidity
14079;DHT22;7115;50.150;8.568;2024-01-30T00:00:13;5.00;99.90
14079;DHT22;7115;50.150;8.568;2024-01-30T00:02:40;4.90;99.90
14079;DHT22;7115;50.150;8.568;2024-01-30T00:05:07;4.90;99.90
14079;DHT22;7115;50.150;8.568;2024-01-30T00:07:34;4.90;99.90
14079;DHT22;7115;50.150;8.568;2024-01-30T00:10:01;4.90;99.90
14079;DHT22;7115;50.150;8.568;2024-01-30T00:12:28;4.90;99.90
14079;DHT22;7115;50.150;8.568;2024-01-30T00:14:55;4.80;99.90
14079;DHT22;7115;50.150;8.568;2024-01-30T00:17:24;4.90;99.90
14079;DHT22;7115;50.150;8.568;2024-01-30T00:19:52;4.80;99.90
14079;DHT22;7115;50.150;8.568;2024-01-30T00:22:20;4.80;99.90
14079;DHT22;7115;50.150;8.568;2024-01-30T00:24:47;4.70;99.90
14079;DHT22;7115;50.150;8.568;2024-01-30T00:27:14;4.60;99.90
14079;DHT22;7115;50.150;8.568;2024-01-30T00:29:41;4.60;99.90
14079;DHT22;7115;50.150;8.568;2024-01-30T00:32:08;4.60;99.90
14079;DHT22;7115;50.150;8.568;2024-01-30T00:34:36;4.60;99.90
14079;DHT22;7115;50.150;8.568;2024-01-30T00:37:04;4.60;99.90
14079;DHT22;7115;50.150;8.568;2024-01-30T00:39:31;4.60;99.90
14079;DHT22;7115;50.150;8.568;2024-01-30T00:41:58;4.60;99.90
14079;DHT22;7115;50.150;8.568;2024-01-30T00:44:25;4.50;99.90
14079;DHT22;7115;50.150;8.568;2024-01-30T00:46:53;4.50;99.90
14079;DHT22;7115;50.150;8.568;2024-01-30T00:49:20;4.40;99.90
14079;DHT22;7115;50.150;8.568;2024-01-30T00:51:48;4.40;99.90
14079;DHT22;7115;50.150;8.568;2024-01-30T00:54:15;4.40;99.90
14079;DHT22;7115;50.150;8.568;2024-01-30T00:56:42;4.30;99.90
14079;DHT22;7115;50.150;8.568;2024-01-30T00:59:10;4.40;99.90
14079;DHT22;7115;50.150;8.568;2024-01-30T01:01:37;4.30;99.90
14079;DHT22;7115;50.150;8.568;2024-01-30T01:04:04;4.40;99.90
14079;DHT22;7115;50.150;8.568;2024-01-30T01:06:31;4.40;99.90
14079;DHT22;7115;50.150;8.568;2024-01-30T01:09:00;4.40;99.90
14079;DHT22;7115;50.150;8.568;2024-01-30T01:11:31;4.40;99.90
14079;DHT22;7115;50.150;8.568;2024-01-30T01:13:58;4.40;99.90
14079;DHT22;7115;50.150;8.568;2024-01-30T01:16:25;4.40;99.90
14079;DHT22;7115;50.150;8.568;2024-01-30T01:18:52;4.40;99.90
14079;DHT22;7115;50.150;8.568;2024-01-30T01:21:19;4.40;99.90
14079;DHT22;7115;50.150;8.568;2024-01-30T01:23:46;4.40;99.90
14079;DHT22;7115;50.150;8.568;2024-01-30T01:26:14;4.30;99.90
14079;DHT22;7115;50.150;8.568;2024-01-30T01:28:41;4.30;99.90
14079;DHT22;7115;50.150;8.568;2024-01-30T01:31:09;4.20;99.90
14079;DHT22;7115;50.150;8.568;2024-01-30T01:33:36;4.20;99.90
14079;DHT22;7115;50.150;8.568;2024-01-30T01:36:05;4.20;99.90
14079;DHT22;7115;50.150;8.568;2024-01-30T01:38:33;4.20;99.90
14079;DHT22;7115;50.150;8.568;2024-01-30T01:41:00;4.20;99.90
14079;DHT22;7115;50.150;8.568;2024-01-30T01:43:28;4.20;99.90
14079;DHT22;7115;50.150;8.568;2024-01-30T01:45:56;4.20;99.90
14079;DHT22;7115;50.150;8.568;2024-01-30T01:48:23;4.20;99.90
14079;DHT22;7115;50.150;8.568;2024-01-30T01:50:52;4.20;99.90
14079;DHT22;7115;50.150;8.568;2024-01-30T01:53:19;4.20;99.90
14079;DHT22;7115;50.150;8.568;2024-01-30T01:55:47;4.20;99.90
14079;DHT22;7115;50.150;8.568;2024-01-30T01:58:15;4.20;99.90
14079;DHT22;7115;50.150;8.568;2024-01-30T02:00:44;4.20;99.90
14079;DHT22;7115;50.150;8.568;2024-01-30T02:03:11;4.10;99.90
14079;DHT22;7115;50.150;8.568;2024-01-30T02:05:41;4.00;99.90
14079;DHT22;7115;50.150;8.568;2024-01-30T02:08:09;4.00;99.90
14079;DHT22;7115;50.150;8.568;2024-01-30T02:10:36;4.00;99.90
14079;DHT22;7115;50.150;8.568;2024-01-30T02:13:03;4.00;99.90
14079;DHT22;7115;50.150;8.568;2024-01-30T02:15:31;4.00;99.90
14079;DHT22;7115;50.150;8.568;2024-01-30T02:17:59;4.00;99.90
14079;DHT22;7115;50.150;8.568;2024-01-30T02:20:30;4.00;99.90
14079;DHT22;7115;50.150;8.568;2024-01-30T02:22:59;4.00;99.90
14079;DHT22;7115;50.150;8.568;2024-01-30T02:25:31;4.00;99.90
14079;DHT22;7115;50.150;8.568;2024-01-30T02:27:58;4.00;99.90
14079;DHT22;7115;50.150;8.568;2024-01-30T02:30:25;4.00;99.90
14079;DHT22;7115;50.150;8.568;2024-01-30T02:32:52;4.00;99.90
14079;DHT22;7115;50.150;8.568;2024-01-30T02:35:19;4.00;99.90
14079;DHT22;7115;50.150;8.568;2024-01-30T02:37:47;4.00;99.90
14079;DHT22;7115;50.150;8.568;2024-01-30T02:40:15;4.00;99.90
14079;DHT22;7115;50.150;8.568;2024-01-30T02:42:42;4.00;99.90
14079;DHT22;7115;50.150;8.568;2024-01-30T02:45:10;3.90;99.90
14079;DHT22;7115;50.150;8.568;2024-01-30T02:47:38;4.00;99.90
14079;DHT22;7115;50.150;8.568;2024-01-30T02:50:06;3.90;99.90
14079;DHT22;7115;50.150;8.568;2024-01-30T02:52:33;3.90;99.90
14079;DHT22;7115;50.150;8.568;2024-01-30T02:55:00;3.90;99.90
14079;DHT22;7115;50.150;8.568;2024-01-30T02:57:30;3.90;99.90
14079;DHT22;7115;50.150;8.568;2024-01-30T02:59:57;3.80;99.90
14079;DHT22;7115;50.150;8.568;2024-01-30T03:02:24;3.80;99.90
14079;DHT22;7115;50.150;8.568;2024-01-30T03:04:51;3.80;99.90
14079;DHT22;7115;50.150;8.568;2024-01-30T03:07:18;3.80;99.90
14079;DHT22;7115;50.150;8.568;2024-01-30T03:09:45;3.80;99.90
14079;DHT22;7115;50.150;8.568;2024-01-30T03:12:12;3.70;99.90
14079;DHT22;7115;50.150;8.568;2024-01-30T03:14:41;3.70;99.90
14079;DHT22;7115;50.150;8.568;2024-01-30T03:17:08;3.70;99.90
14079;DHT22;7115;50.150;8.568;2024-01-30T03:19:35;3.80;99.90
14079;DHT22;7115;50.150;8.568;2024-01-30T03:22:02;3.80;99.90
14079;DHT22;7115;50.150;8.568;2024-01-30T03:24:29;3.80;99.90
14079;DHT22;7115;50.150;8.568;2024-01-30T03:26:57;3.70;99.90
14079;DHT22;7115;50.150;8.568;2024-01-30T03:29:24;3.80;99.90
14079;DHT22;7115;50.150;8.568;2024-01-30T03:31:52;3.80;99.90
14079;DHT22;7115;50.150;8.568;2024-01-30T03:34:19;3.80;99.90
14079;DHT22;7115;50.150;8.568;2024-01-30T03:36:46;3.80;99.90
14079;DHT22;7115;50.150;8.568;2024-01-30T03:39:13;3.80;99.90
14079;DHT22;7115;50.150;8.568;2024-01-30T03:41:42;3.70;99.90
14079;DHT22;7115;50.150;8.568;2024-01-30T03:44:10;3.70;99.90
14079;DHT22;7115;50.150;8.568;2024-01-30T03:46:37;3.70;99.90
14079;DHT22;7115;50.150;8.568;2024-01-30T03:49:05;3.70;99.90
14079;DHT22;7115;50.150;8.568;2024-01-30T03:51:32;3.70;99.90
14079;DHT22;7115;50.150;8.568;2024-01-30T03:53:59;3.70;99.90
14079;DHT22;7115;50.150;8.568;2024-01-30T03:56:26;3.70;99.90
14079;DHT22;7115;50.150;8.568;2024-01-30T03:58:53;3.60;99.90
14079;DHT22;7115;50.150;8.568;2024-01-30T04:01:20;3.60;99.90
14079;DHT22;7115;50.150;8.568;2024-01-30T04:03:47;3.60;99.90
14079;DHT22;7115;50.150;8.568;2024-01-30T04:06:15;3.50;99.90
14079;DHT22;7115;50.150;8.568;2024-01-30T04:08:42;3.50;99.90
14079;DHT22;7115;50.150;8.568;2024-01-30T04:11:09;3.50;99.90
14079;DHT22;7115;50.150;8.568;2024-01-30T04:13:36;3.50;99.90
14079;DHT22;7115;50.150;8.568;2024-01-30T04:16:04;3.50;99.90
14079;DHT22;7115;50.150;8.568;2024-01-30T04:18:32;3.50;99.90
14079;DHT22;7115;50.150;8.568;2024-01-30T04:21:00;3.40;99.90
14079;DHT22;7115;50.150;8.568;2024-01-30T04:23:28;3.40;99.90
14079;DHT22;7115;50.150;8.568;2024-01-30T04:25:55;3.40;99.90
14079;DHT22;7115;50.150;8.568;2024-01-30T04:28:22;3.40;99.90
14079;DHT22;7115;50.150;8.568;2024-01-30T04:30:49;3.30;99.90
14079;DHT22;7115;50.150;8.568;2024-01-30T04:33:16;3.30;99.90
14079;DHT22;7115;50.150;8.568;2024-01-30T04:35:45;3.30;99.90
14079;DHT22;7115;50.150;8.568;2024-01-30T04:38:12;3.30;99.90
14079;DHT22;7115;50.150;8.568;2024-01-30T04:40:40;3.30;99.90
14079;DHT22;7115;50.150;8.568;2024-01-30T04:43:07;3.30;99.90
14079;DHT22;7115;50.150;8.568;2024-01-30T04:45:35;3.30;99.90
14079;DHT22;7115;50.150;8.568;2024-01-30T04:48:02;3.40;99.90
14079;DHT22;7115;50.150;8.568;2024-01-30T04:50:29;3.30;99.90
14079;DHT22;7115;50.150;8.568;2024-01-30T04:52:56;3.40;99.90
14079;DHT22;7115;50.150;8.568;2024-01-30T04:55:23;3.40;99.90
14079;DHT22;7115;50.150;8.568;2024-01-30T04:57:51;3.40;99.90
14079;DHT22;7115;50.150;8.568;2024-01-30T05:00:19;3.40;99.90
14079;DHT22;7115;50.150;8.568;2024-01-30T05:02:46;3.40;99.90
14079;DHT22;7115;50.150;8.568;2024-01-30T05:05:13;3.40;99.90
14079;DHT22;7115;50.150;8.568;2024-01-30T05:07:41;3.40;99.90
14079;DHT22;7115;50.150;8.568;2024-01-30T05:10:11;3.40;99.90
14079;DHT22;7115;50.150;8.568;2024-01-30T05:12:38;3.40;99.90
14079;DHT22;7115;50.150;8.568;2024-01-30T05:15:08;3.40;99.90
14079;DHT22;7115;50.150;8.568;2024-01-30T05:17:35;3.40;99.90
14079;DHT22;7115;50.150;8.568;2024-01-30T05:20:02;3.50;99.90
14079;DHT22;7115;50.150;8.568;2024-01-30T05:22:31;3.50;99.90
14079;DHT22;7115;50.150;8.568;2024-01-30T05:24:58;3.50;99.90
14079;DHT22;7115;50.150;8.568;2024-01-30T05:27:25;3.50;99.90
14079;DHT22;7115;50.150;8.568;2024-01-30T05:29:52;3.50;99.90
14079;DHT22;7115;50.150;8.568;2024-01-30T05:32:20;3.50;99.90
14079;DHT22;7115;50.150;8.568;2024-01-30T05:34:48;3.50;99.90
14079;DHT22;7115;50.150;8.568;2024-01-30T05:37:17;3.50;99.90
14079;DHT22;7115;50.150;8.568;2024-01-30T05:39:45;3.50;99.90
14079;DHT22;7115;50.150;8.568;2024-01-30T05:42:12;3.50;99.90
14079;DHT22;7115;50.150;8.568;2024-01-30T05:44:39;3.50;99.90
14079;DHT22;7115;50.150;8.568;2024-01-30T05:47:06;3.40;99.90
14079;DHT22;7115;50.150;8.568;2024-01-30T05:49:34;3.40;99.90
14079;DHT22;7115;50.150;8.568;2024-01-30T05:52:02;3.40;99.90
14079;DHT22;7115;50.150;8.568;2024-01-30T05:54:30;3.40;99.90
14079;DHT22;7115;50.150;8.568;2024-01-30T05:56:56;3.40;99.90
14079;DHT22;7115;50.150;8.568;2024-01-30T05:59:23;3.40;99.90
14079;DHT22;7115;50.150;8.568;2024-01-30T06:01:50;3.40;99.90
14079;DHT22;7115;50.150;8.568;2024-01-30T06:04:17;3.50;99.90
14079;DHT22;7115;50.150;8.568;2024-01-30T06:06:46;3.40;99.90
14079;DHT22;7115;50.150;8.568;2024-01-30T06:09:13;3.40;99.90
14079;DHT22;7115;50.150;8.568;2024-01-30T06:11:40;3.40;99.90
14079;DHT22;7115;50.150;8.568;2024-01-30T06:14:07;3.30;99.90
14079;DHT22;7115;50.150;8.568;2024-01-30T06:16:34;3.30;99.90
14079;DHT22;7115;50.150;8.568;2024-01-30T06:19:01;3.30;99.90
14079;DHT22;7115;50.150;8.568;2024-01-30T06:21:28;3.30;99.90
14079;DHT22;7115;50.150;8.568;2024-01-30T06:23:57;3.30;99.90
14079;DHT22;7115;50.150;8.568;2024-01-30T06:26:24;3.30;99.90
14079;DHT22;7115;50.150;8.568;2024-01-30T06:28:51;3.30;99.90
14079;DHT22;7115;50.150;8.568;2024-01-30T06:31:18;3.20;99.90
14079;DHT22;7115;50.150;8.568;2024-01-30T06:33:46;3.20;99.90
14079;DHT22;7115;50.150;8.568;2024-01-30T06:36:13;3.20;99.90
14079;DHT22;7115;50.150;8.568;2024-01-30T06:38:40;3.20;99.90
14079;DHT22;7115;50.150;8.568;2024-01-30T06:41:09;3.20;99.90
14079;DHT22;7115;50.150;8.568;2024-01-30T06:43:36;3.20;99.90
14079;DHT22;7115;50.150;8.568;2024-01-30T06:46:03;3.20;99.90
14079;DHT22;7115;50.150;8.568;2024-01-30T06:48:30;3.20;99.90
14079;DHT22;7115;50.150;8.568;2024-01-30T06:50:57;3.20;99.90
14079;DHT22;7115;50.150;8.568;2024-01-30T06:53:24;3.30;99.90
14079;DHT22;7115;50.150;8.568;2024-01-30T06:55:53;3.30;99.90
14079;DHT22;7115;50.150;8.568;2024-01-30T06:58:21;3.30;99.90
14079;DHT22;7115;50.150;8.568;2024-01-30T07:00:48;3.30;99.90
14079;DHT22;7115;50.150;8.568;2024-01-30T07:03:15;3.30;99.90
14079;DHT22;7115;50.150;8.568;2024-01-30T07:05:42;3.30;99.90
14079;DHT22;7115;50.150;8.568;2024-01-30T07:08:09;3.30;99.90
14079;DHT22;7115;50.150;8.568;2024-01-30T07:10:36;3.20;99.90
14079;DHT22;7115;50.150;8.568;2024-01-30T07:13:04;3.20;99.90
14079;DHT22;7115;50.150;8.568;2024-01-30T07:15:34;3.20;99.90
14079;DHT22;7115;50.150;8.568;2024-01-30T07:18:00;3.30;99.90
14079;DHT22;7115;50.150;8.568;2024-01-30T07:20:28;3.30;99.90
14079;DHT22;7115;50.150;8.568;2024-01-30T07:22:57;3.30;99.90
14079;DHT22;7115;50.150;8.568;2024-01-30T07:25:24;3.30;99.90
14079;DHT22;7115;50.150;8.568;2024-01-30T07:27:56;3.40;99.90
14079;DHT22;7115;50.150;8.568;2024-01-30T07:30:24;3.50;99.90
14079;DHT22;7115;50.150;8.568;2024-01-30T07:32:52;3.40;99.90
14079;DHT22;7115;50.150;8.568;2024-01-30T07:35:19;3.40;99.90
14079;DHT22;7115;50.150;8.568;2024-01-30T07:37:47;3.40;99.90
14079;DHT22;7115;50.150;8.568;2024-01-30T07:40:14;3.50;99.90
14079;DHT22;7115;50.150;8.568;2024-01-30T07:42:43;3.60;99.90
14079;DHT22;7115;50.150;8.568;2024-01-30T07:45:10;3.70;99.90
14079;DHT22;7115;50.150;8.568;2024-01-30T07:47:38;3.80;99.90
14079;DHT22;7115;50.150;8.568;2024-01-30T07:50:07;3.80;99.90
14079;DHT22;7115;50.150;8.568;2024-01-30T07:52:34;3.80;99.90
14079;DHT22;7115;50.150;8.568;2024-01-30T07:55:02;3.90;99.90
14079;DHT22;7115;50.150;8.568;2024-01-30T07:57:30;4.00;99.90
14079;DHT22;7115;50.150;8.568;2024-01-30T07:59:57;4.00;99.90
14079;DHT22;7115;50.150;8.568;2024-01-30T08:02:25;4.20;99.90
14079;DHT22;7115;50.150;8.568;2024-01-30T08:04:52;4.30;99.90
14079;DHT22;7115;50.150;8.568;2024-01-30T08:07:20;4.40;99.90
14079;DHT22;7115;50.150;8.568;2024-01-30T08:09:49;4.50;99.90
14079;DHT22;7115;50.150;8.568;2024-01-30T08:12:16;4.70;99.90
14079;DHT22;7115;50.150;8.568;2024-01-30T08:14:43;4.90;99.90
14079;DHT22;7115;50.150;8.568;2024-01-30T08:17:10;5.00;99.90
14079;DHT22;7115;50.150;8.568;2024-01-30T08:19:37;5.20;99.90
14079;DHT22;7115;50.150;8.568;2024-01-30T08:22:04;5.30;99.90
14079;DHT22;7115;50.150;8.568;2024-01-30T08:24:33;5.40;99.90
14079;DHT22;7115;50.150;8.568;2024-01-30T08:27:00;5.40;99.90
14079;DHT22;7115;50.150;8.568;2024-01-30T08:29:29;5.40;99.90
14079;DHT22;7115;50.150;8.568;2024-01-30T08:31:56;5.50;99.90
14079;DHT22;7115;50.150;8.568;2024-01-30T08:34:23;5.50;99.90
14079;DHT22;7115;50.150;8.568;2024-01-30T08:36:50;5.60;99.90
14079;DHT22;7115;50.150;8.568;2024-01-30T08:39:17;5.60;99.90
14079;DHT22;7115;50.150;8.568;2024-01-30T08:41:45;5.80;99.90
14079;DHT22;7115;50.150;8.568;2024-01-30T08:44:13;5.90;99.90
14079;DHT22;7115;50.150;8.568;2024-01-30T08:46:40;6.00;99.90
14079;DHT22;7115;50.150;8.568;2024-01-30T08:49:07;6.20;99.90
14079;DHT22;7115;50.150;8.568;2024-01-30T08:51:35;6.30;99.90
14079;DHT22;7115;50.150;8.568;2024-01-30T08:54:02;6.40;99.90
14079;DHT22;7115;50.150;8.568;2024-01-30T08:56:29;6.60;99.90
14079;DHT22;7115;50.150;8.568;2024-01-30T08:58:57;6.70;99.90
14079;DHT22;7115;50.150;8.568;2024-01-30T09:01:25;6.70;99.90
14079;DHT22;7115;50.150;8.568;2024-01-30T09:03:52;6.70;99.90
14079;DHT22;7115;50.150;8.568;2024-01-30T09:06:19;6.60;99.90
14079;DHT22;7115;50.150;8.568;2024-01-30T09:08:46;6.60;99.90
14079;DHT22;7115;50.150;8.568;2024-01-30T09:11:14;6.40;99.90
14079;DHT22;7115;50.150;8.568;2024-01-30T09:13:41;6.30;99.90
14079;DHT22;7115;50.150;8.568;2024-01-30T09:16:09;6.20;99.90
14079;DHT22;7115;50.150;8.568;2024-01-30T09:18:37;6.10;99.90
14079;DHT22;7115;50.150;8.568;2024-01-30T09:21:04;6.10;99.90
14079;DHT22;7115;50.150;8.568;2024-01-30T09:23:31;6.00;99.90
14079;DHT22;7115;50.150;8.568;2024-01-30T09:26:16;6.00;99.90
14079;DHT22;7115;50.150;8.568;2024-01-30T09:28:43;6.00;99.90
14079;DHT22;7115;50.150;8.568;2024-01-30T09:31:13;6.00;99.90
14079;DHT22;7115;50.150;8.568;2024-01-30T09:33:40;6.00;99.90
14079;DHT22;7115;50.150;8.568;2024-01-30T09:36:08;5.90;99.90
14079;DHT22;7115;50.150;8.568;2024-01-30T09:38:35;5.90;99.90
14079;DHT22;7115;50.150;8.568;2024-01-30T09:41:04;5.80;99.90
14079;DHT22;7115;50.150;8.568;2024-01-30T09:43:33;5.80;99.90
14079;DHT22;7115;50.150;8.568;2024-01-30T09:46:03;5.80;99.90
14079;DHT22;7115;50.150;8.568;2024-01-30T09:48:34;5.80;99.90
14079;DHT22;7115;50.150;8.568;2024-01-30T09:51:02;5.90;99.90
14079;DHT22;7115;50.150;8.568;2024-01-30T09:53:29;5.90;99.90
14079;DHT22;7115;50.150;8.568;2024-01-30T09:55:57;6.00;99.90
14079;DHT22;7115;50.150;8.568;2024-01-30T09:58:24;5.90;99.90
14079;DHT22;7115;50.150;8.568;2024-01-30T10:00:52;6.00;99.90
14079;DHT22;7115;50.150;8.568;2024-01-30T10:03:24;6.10;99.90
14079;DHT22;7115;50.150;8.568;2024-01-30T10:05:55;6.10;99.90
14079;DHT22;7115;50.150;8.568;2024-01-30T10:08:22;6.10;99.90
14079;DHT22;7115;50.150;8.568;2024-01-30T10:10:50;6.20;99.90
14079;DHT22;7115;50.150;8.568;2024-01-30T10:13:17;6.20;99.90
14079;DHT22;7115;50.150;8.568;2024-01-30T10:15:44;6.20;99.90
14079;DHT22;7115;50.150;8.568;2024-01-30T10:18:11;6.10;99.90
14079;DHT22;7115;50.150;8.568;2024-01-30T10:20:39;6.20;99.90
14079;DHT22;7115;50.150;8.568;2024-01-30T10:23:07;6.10;99.90
14079;DHT22;7115;50.150;8.568;2024-01-30T10:25:35;6.20;99.90
14079;DHT22;7115;50.150;8.568;2024-01-30T10:28:03;6.20;99.90
14079;DHT22;7115;50.150;8.568;2024-01-30T10:30:30;6.20;99.90
14079;DHT22;7115;50.150;8.568;2024-01-30T10:32:57;6.30;99.90
14079;DHT22;7115;50.150;8.568;2024-01-30T10:35:24;6.30;99.90
14079;DHT22;7115;50.150;8.568;2024-01-30T10:37:52;6.20;99.90
14079;DHT22;7115;50.150;8.568;2024-01-30T10:40:21;6.20;99.90
14079;DHT22;7115;50.150;8.568;2024-01-30T10:42:53;6.20;99.90
14079;DHT22;7115;50.150;8.568;2024-01-30T10:45:23;6.20;99.90
14079;DHT22;7115;50.150;8.568;2024-01-30T10:47:55;6.20;99.90
14079;DHT22;7115;50.150;8.568;2024-01-30T10:50:25;6.20;99.90
14079;DHT22;7115;50.150;8.568;2024-01-30T10:52:54;6.10;99.90
14079;DHT22;7115;50.150;8.568;2024-01-30T10:55:24;6.10;99.90
14079;DHT22;7115;50.150;8.568;2024-01-30T10:57:52;6.20;99.90
14079;DHT22;7115;50.150;8.568;2024-01-30T11:00:20;6.30;99.90
14079;DHT22;7115;50.150;8.568;2024-01-30T11:02:50;6.30;99.90
14079;DHT22;7115;50.150;8.568;2024-01-30T11:05:24;6.40;99.90
14079;DHT22;7115;50.150;8.568;2024-01-30T11:08:09;6.40;99.90
14079;DHT22;7115;50.150;8.568;2024-01-30T11:10:46;6.40;99.90
14079;DHT22;7115;50.150;8.568;2024-01-30T11:13:14;6.40;99.90
14079;DHT22;7115;50.150;8.568;2024-01-30T11:15:41;6.40;99.90
14079;DHT22;7115;50.150;8.568;2024-01-30T11:18:08;6.40;99.90
14079;DHT22;7115;50.150;8.568;2024-01-30T11:20:36;6.50;99.90
14079;DHT22;7115;50.150;8.568;2024-01-30T11:23:03;6.50;99.90
14079;DHT22;7115;50.150;8.568;2024-01-30T11:25:33;6.50;99.90
14079;DHT22;7115;50.150;8.568;2024-01-30T11:28:02;6.60;99.90
14079;DHT22;7115;50.150;8.568;2024-01-30T11:30:31;6.70;99.90
14079;DHT22;7115;50.150;8.568;2024-01-30T11:33:02;6.70;99.90
14079;DHT22;7115;50.150;8.568;2024-01-30T11:35:32;6.70;99.90
14079;DHT22;7115;50.150;8.568;2024-01-30T11:38:01;6.70;99.90
14079;DHT22;7115;50.150;8.568;2024-01-30T11:40:28;6.70;99.90
14079;DHT22;7115;50.150;8.568;2024-01-30T11:42:56;6.70;99.90
14079;DHT22;7115;50.150;8.568;2024-01-30T11:45:26;6.80;99.90
14079;DHT22;7115;50.150;8.568;2024-01-30T11:47:53;6.70;99.90
14079;DHT22;7115;50.150;8.568;2024-01-30T11:50:21;6.80;99.90
14079;DHT22;7115;50.150;8.568;2024-01-30T11:52:48;6.80;99.90
14079;DHT22;7115;50.150;8.568;2024-01-30T11:55:16;6.90;99.90
14079;DHT22;7115;50.150;8.568;2024-01-30T11:57:43;7.00;99.90
14079;DHT22;7115;50.150;8.568;2024-01-30T12:00:17;7.10;99.90
14079;DHT22;7115;50.150;8.568;2024-01-30T12:02:51;7.00;99.90
14079;DHT22;7115;50.150;8.568;2024-01-30T12:05:19;7.30;99.90
14079;DHT22;7115;50.150;8.568;2024-01-30T12:07:47;7.30;99.90
14079;DHT22;7115;50.150;8.568;2024-01-30T12:10:14;7.40;99.90
14079;DHT22;7115;50.150;8.568;2024-01-30T12:12:44;7.40;99.90
14079;DHT22;7115;50.150;8.568;2024-01-30T12:15:12;7.50;99.90
14079;DHT22;7115;50.150;8.568;2024-01-30T12:17:40;7.60;99.90
14079;DHT22;7115;50.150;8.568;2024-01-30T12:20:10;7.70;99.90
14079;DHT22;7115;50.150;8.568;2024-01-30T12:22:39;7.80;99.90
14079;DHT22;7115;50.150;8.568;2024-01-30T12:25:08;7.90;99.90
14079;DHT22;7115;50.150;8.568;2024-01-30T12:27:36;8.00;99.90
14079;DHT22;7115;50.150;8.568;2024-01-30T12:30:05;8.00;99.90
14079;DHT22;7115;50.150;8.568;2024-01-30T12:32:34;8.00;99.90
14079;DHT22;7115;50.150;8.568;2024-01-30T12:35:02;8.00;99.90
14079;DHT22;7115;50.150;8.568;2024-01-30T12:37:31;8.10;99.90
14079;DHT22;7115;50.150;8.568;2024-01-30T12:39:58;8.20;99.90
14079;DHT22;7115;50.150;8.568;2024-01-30T12:42:27;8.20;99.90
14079;DHT22;7115;50.150;8.568;2024-01-30T12:44:54;8.20;99.90
14079;DHT22;7115;50.150;8.568;2024-01-30T12:47:21;8.20;99.90
14079;DHT22;7115;50.150;8.568;2024-01-30T12:49:48;8.20;99.90
14079;DHT22;7115;50.150;8.568;2024-01-30T12:52:16;8.20;99.90
14079;DHT22;7115;50.150;8.568;2024-01-30T12:54:45;8.20;99.90
14079;DHT22;7115;50.150;8.568;2024-01-30T12:57:12;8.30;99.90
14079;DHT22;7115;50.150;8.568;2024-01-30T12:59:39;8.40;99.90
14079;DHT22;7115;50.150;8.568;2024-01-30T13:02:07;8.50;99.90
14079;DHT22;7115;50.150;8.568;2024-01-30T13:04:34;8.50;99.90
14079;DHT22;7115;50.150;8.568;2024-01-30T13:07:02;8.60;99.90
14079;DHT22;7115;50.150;8.568;2024-01-30T13:09:29;8.70;99.90
14079;DHT22;7115;50.150;8.568;2024-01-30T13:11:58;8.80;99.90
14079;DHT22;7115;50.150;8.568;2024-01-30T13:14:26;8.80;99.90
14079;DHT22;7115;50.150;8.568;2024-01-30T13:16:54;8.90;99.90
14079;DHT22;7115;50.150;8.568;2024-01-30T13:19:21;8.90;99.90
14079;DHT22;7115;50.150;8.568;2024-01-30T13:21:48;8.90;99.90
14079;DHT22;7115;50.150;8.568;2024-01-30T13:24:15;9.00;99.90
14079;DHT22;7115;50.150;8.568;2024-01-30T13:26:42;9.00;99.90
14079;DHT22;7115;50.150;8.568;2024-01-30T13:29:11;9.10;99.90
14079;DHT22;7115;50.150;8.568;2024-01-30T13:31:39;9.00;99.90
14079;DHT22;7115;50.150;8.568;2024-01-30T13:34:11;9.00;99.90
14079;DHT22;7115;50.150;8.568;2024-01-30T13:36:38;9.00;99.90
14079;DHT22;7115;50.150;8.568;2024-01-30T13:39:05;9.00;99.90
14079;DHT22;7115;50.150;8.568;2024-01-30T13:41:36;9.00;99.90
14079;DHT22;7115;50.150;8.568;2024-01-30T13:44:03;9.00;99.90
14079;DHT22;7115;50.150;8.568;2024-01-30T13:46:32;9.00;99.90
14079;DHT22;7115;50.150;8.568;2024-01-30T13:48:59;9.00;99.90
14079;DHT22;7115;50.150;8.568;2024-01-30T13:51:27;9.00;99.90
14079;DHT22;7115;50.150;8.568;2024-01-30T13:53:54;8.90;99.90
14079;DHT22;7115;50.150;8.568;2024-01-30T13:56:21;8.90;99.90
14079;DHT22;7115;50.150;8.568;2024-01-30T13:58:48;8.90;99.90
14079;DHT22;7115;50.150;8.568;2024-01-30T14:01:17;8.90;99.90
14079;DHT22;7115;50.150;8.568;2024-01-30T14:03:45;8.90;99.90
14079;DHT22;7115;50.150;8.568;2024-01-30T14:06:19;8.90;99.90
14079;DHT22;7115;50.150;8.568;2024-01-30T14:08:46;8.90;99.90
14079;DHT22;7115;50.150;8.568;2024-01-30T14:11:23;8.80;99.90
14079;DHT22;7115;50.150;8.568;2024-01-30T14:13:50;8.80;99.90
14079;DHT22;7115;50.150;8.568;2024-01-30T14:16:17;8.70;99.90
14079;DHT22;7115;50.150;8.568;2024-01-30T14:18:45;8.80;99.90
14079;DHT22;7115;50.150;8.568;2024-01-30T14:21:12;8.80;99.90
14079;DHT22;7115;50.150;8.568;2024-01-30T14:23:39;8.80;99.90
14079;DHT22;7115;50.150;8.568;2024-01-30T14:26:06;8.70;99.90
14079;DHT22;7115;50.150;8.568;2024-01-30T14:28:33;8.70;99.90
14079;DHT22;7115;50.150;8.568;2024-01-30T14:31:01;8.70;99.90
14079;DHT22;7115;50.150;8.568;2024-01-30T14:33:28;8.70;99.90
14079;DHT22;7115;50.150;8.568;2024-01-30T14:35:56;8.70;99.90
14079;DHT22;7115;50.150;8.568;2024-01-30T14:38:23;8.70;99.90
14079;DHT22;7115;50.150;8.568;2024-01-30T14:40:51;8.70;99.90
14079;DHT22;7115;50.150;8.568;2024-01-30T14:43:19;8.70;99.90
14079;DHT22;7115;50.150;8.568;2024-01-30T14:45:46;8.70;99.90
14079;DHT22;7115;50.150;8.568;2024-01-30T14:48:16;8.70;99.90
14079;DHT22;7115;50.150;8.568;2024-01-30T14:50:43;8.70;99.90
14079;DHT22;7115;50.150;8.568;2024-01-30T14:53:11;8.70;99.90
14079;DHT22;7115;50.150;8.568;2024-01-30T14:55:38;8.70;99.90
14079;DHT22;7115;50.150;8.568;2024-01-30T14:58:05;8.80;99.90
14079;DHT22;7115;50.150;8.568;2024-01-30T15:00:33;8.80;99.90
14079;DHT22;7115;50.150;8.568;2024-01-30T15:03:00;8.80;99.90
14079;DHT22;7115;50.150;8.568;2024-01-30T15:05:27;8.80;99.90
14079;DHT22;7115;50.150;8.568;2024-01-30T15:07:54;8.80;99.90
14079;DHT22;7115;50.150;8.568;2024-01-30T15:10:22;8.80;99.90
14079;DHT22;7115;50.150;8.568;2024-01-30T15:12:50;8.90;99.90
14079;DHT22;7115;50.150;8.568;2024-01-30T15:15:17;8.90;99.90
14079;DHT22;7115;50.150;8.568;2024-01-30T15:17:44;8.90;99.90
14079;DHT22;7115;50.150;8.568;2024-01-30T15:20:11;8.90;99.90
14079;DHT22;7115;50.150;8.568;2024-01-30T15:22:38;8.90;99.90
14079;DHT22;7115;50.150;8.568;2024-01-30T15:25:07;8.90;99.90
14079;DHT22;7115;50.150;8.568;2024-01-30T15:27:36;8.90;99.90
14079;DHT22;7115;50.150;8.568;2024-01-30T15:30:03;8.90;99.90
14079;DHT22;7115;50.150;8.568;2024-01-30T15:32:31;8.90;99.90
14079;DHT22;7115;50.150;8.568;2024-01-30T15:35:00;8.90;99.90
14079;DHT22;7115;50.150;8.568;2024-01-30T15:37:30;8.90;99.90
14079;DHT22;7115;50.150;8.568;2024-01-30T15:39:57;9.00;99.90
14079;DHT22;7115;50.150;8.568;2024-01-30T15:42:24;9.00;99.90
14079;DHT22;7115;50.150;8.568;2024-01-30T15:44:52;9.00;99.90
14079;DHT22;7115;50.150;8.568;2024-01-30T15:47:19;9.00;99.90
14079;DHT22;7115;50.150;8.568;2024-01-30T15:49:47;9.00;99.90
14079;DHT22;7115;50.150;8.568;2024-01-30T15:52:14;9.00;99.90
14079;DHT22;7115;50.150;8.568;2024-01-30T15:54:44;9.10;99.90
14079;DHT22;7115;50.150;8.568;2024-01-30T15:57:11;9.10;99.90
14079;DHT22;7115;50.150;8.568;2024-01-30T15:59:38;9.10;99.90
14079;DHT22;7115;50.150;8.568;2024-01-30T16:02:06;9.10;99.90
14079;DHT22;7115;50.150;8.568;2024-01-30T16:04:33;9.10;99.90